createdAt,value
2022-10-08T00:03:42.209Z,10.67
2022-10-08T00:08:49.601Z,10.18
2022-10-08T00:13:53.532Z,10.07
2022-10-08T00:19:00.789Z,10.50
2022-10-08T00:24:04.562Z,9.95
2022-10-08T00:29:07.600Z,11.05
2022-10-08T00:34:11.535Z,11.53
2022-10-08T00:39:16.077Z,11.93
2022-10-08T00:44:52.058Z,11.30
2022-10-08T00:49:58.084Z,10.63
2022-10-08T00:54:59.925Z,12.02
2022-10-08T01:00:08.179Z,10.90
2022-10-08T01:05:12.664Z,11.35
2022-10-08T01:10:32.629Z,11.02
2022-10-08T01:15:41.942Z,10.70
2022-10-08T01:21:00.420Z,10.87
2022-10-08T01:26:37.714Z,10.35
2022-10-08T01:31:57.897Z,11.25
2022-10-08T01:37:01.199Z,11.20
2022-10-08T01:42:07.149Z,11.45
2022-10-08T01:47:16.803Z,10.95
2022-10-08T01:52:26.804Z,10.75
2022-10-08T01:57:30.374Z,10.45
2022-10-08T02:02:32.289Z,10.88
2022-10-08T02:07:38.591Z,11.38
2022-10-08T02:12:41.259Z,11.20
2022-10-08T02:17:42.872Z,10.47
2022-10-08T02:23:05.603Z,10.90
2022-10-08T02:28:15.867Z,10.15
2022-10-08T02:33:26.186Z,11.80
2022-10-08T02:38:34.751Z,11.23
2022-10-08T02:43:45.655Z,10.32
2022-10-08T02:48:52.355Z,11.40
2022-10-08T02:53:54.156Z,11.63
2022-10-08T02:58:56.200Z,11.70
2022-10-08T03:04:07.347Z,11.03
2022-10-08T03:09:12.169Z,11.82
2022-10-08T03:14:16.576Z,11.55
2022-10-08T03:19:19.046Z,11.17
2022-10-08T03:24:20.741Z,9.75
2022-10-08T03:29:22.395Z,11.02
2022-10-08T03:34:27.426Z,9.75
2022-10-08T03:39:29.181Z,11.47
2022-10-08T03:44:30.907Z,10.73
2022-10-08T03:49:32.593Z,10.03
2022-10-08T03:54:35.789Z,8.95
2022-10-08T03:59:37.487Z,10.77
2022-10-08T04:04:39.257Z,11.35
2022-10-08T04:09:40.949Z,11.88
2022-10-08T04:14:42.609Z,10.25
2022-10-08T04:19:44.338Z,11.38
2022-10-08T04:24:46.011Z,10.25
2022-10-08T04:29:47.680Z,9.83
2022-10-08T04:34:49.358Z,9.77
2022-10-08T04:39:50.995Z,9.27
2022-10-08T04:44:52.822Z,9.97
2022-10-08T04:49:54.480Z,10.20
2022-10-08T04:54:56.149Z,9.40
2022-10-08T05:00:17.087Z,8.87
2022-10-08T05:05:19.494Z,8.67
2022-10-08T05:10:21.135Z,8.67
2022-10-08T05:15:22.789Z,8.70
2022-10-08T05:20:24.463Z,8.93
2022-10-08T05:25:26.155Z,9.27
2022-10-08T05:30:27.867Z,7.95
2022-10-08T05:35:29.559Z,8.18
2022-10-08T05:40:31.256Z,7.15
2022-10-08T05:45:32.978Z,8.05
2022-10-08T05:50:36.721Z,7.35
2022-10-08T05:55:38.377Z,8.18
2022-10-08T06:00:40.070Z,6.38
2022-10-08T06:05:41.751Z,7.20
2022-10-08T06:11:02.340Z,7.25
2022-10-08T06:16:09.563Z,6.53
2022-10-08T06:21:14.229Z,6.75
2022-10-08T06:26:16.280Z,7.00
2022-10-08T06:31:18.682Z,6.97
2022-10-08T06:36:23.114Z,6.50
2022-10-08T06:41:26.438Z,7.22
2022-10-08T06:46:28.539Z,6.97
2022-10-08T06:51:30.333Z,6.88
2022-10-08T06:56:32.068Z,6.80
2022-10-08T07:01:34.498Z,6.88
2022-10-08T07:06:36.307Z,7.20
2022-10-08T07:11:38.534Z,6.13
2022-10-08T07:16:40.333Z,6.47
2022-10-08T07:21:42.049Z,6.43
2022-10-08T07:26:43.718Z,6.27
2022-10-08T07:31:45.436Z,6.47
2022-10-08T07:36:47.176Z,6.03
2022-10-08T07:41:49.957Z,6.32
2022-10-08T07:46:52.076Z,7.32
2022-10-08T07:51:53.732Z,7.32
2022-10-08T07:56:55.408Z,5.60
2022-10-08T08:01:57.071Z,7.70
2022-10-08T08:06:58.809Z,6.60
2022-10-08T08:12:00.490Z,6.50
2022-10-08T08:17:02.168Z,6.68
2022-10-08T08:22:03.848Z,7.18
2022-10-08T08:27:05.512Z,7.05
2022-10-08T08:32:07.192Z,7.40
2022-10-08T08:37:08.919Z,6.93
2022-10-08T08:42:28.404Z,7.33
2022-10-08T08:47:48.859Z,8.10
2022-10-08T08:52:51.037Z,8.23
2022-10-08T08:58:00.743Z,7.80
2022-10-08T09:03:06.479Z,9.05
2022-10-08T09:08:39.410Z,9.35
2022-10-08T09:13:50.515Z,9.90
2022-10-08T09:18:52.574Z,9.27
2022-10-08T09:23:54.217Z,9.50
2022-10-08T09:28:58.321Z,8.98
2022-10-08T09:34:12.193Z,9.90
2022-10-08T09:39:27.222Z,9.30
2022-10-08T09:44:42.712Z,10.60
2022-10-08T09:49:45.452Z,11.02
2022-10-08T09:54:51.398Z,10.52
2022-10-08T10:00:01.716Z,11.90
2022-10-08T10:05:19.267Z,11.13
2022-10-08T10:10:25.612Z,11.68
2022-10-08T10:15:34.125Z,11.43
2022-10-08T10:20:41.663Z,11.52
2022-10-08T10:26:06.779Z,11.68
2022-10-08T10:31:35.241Z,11.77
2022-10-08T10:36:42.717Z,11.57
2022-10-08T10:41:57.129Z,11.35
2022-10-08T10:47:01.400Z,11.68
2022-10-08T10:52:21.258Z,11.65
2022-10-08T10:57:47.577Z,11.82
2022-10-08T11:02:58.287Z,12.43
2022-10-08T11:08:02.827Z,12.13
2022-10-08T11:13:13.144Z,12.23
2022-10-08T11:18:30.644Z,12.23
2022-10-08T11:24:12.953Z,11.32
2022-10-08T11:29:33.419Z,11.70
2022-10-08T11:34:37.239Z,11.17
2022-10-08T11:39:46.330Z,11.50
2022-10-08T11:44:48.054Z,12.93
2022-10-08T11:49:56.147Z,11.13
2022-10-08T11:54:59.276Z,11.10
2022-10-08T12:00:22.211Z,12.32
2022-10-08T12:05:23.820Z,13.48
2022-10-08T12:10:37.735Z,10.90
2022-10-08T12:15:39.386Z,11.45
2022-10-08T12:20:41.461Z,11.90
2022-10-08T12:26:03.062Z,11.40
2022-10-08T12:31:34.773Z,12.10
2022-10-08T12:37:05.818Z,11.00
2022-10-08T12:42:30.566Z,10.67
2022-10-08T12:47:44.558Z,10.70
2022-10-08T12:52:46.772Z,11.25
2022-10-08T12:57:50.366Z,10.30
2022-10-08T13:03:12.156Z,11.00
2022-10-08T13:08:36.106Z,9.70
2022-10-08T13:13:40.799Z,11.88
2022-10-08T13:18:45.772Z,9.93
2022-10-08T13:23:47.694Z,10.10
2022-10-08T13:29:00.238Z,9.93
2022-10-08T13:34:03.855Z,9.68
2022-10-08T13:39:05.662Z,10.77
2022-10-08T13:44:09.580Z,9.80
2022-10-08T13:49:23.320Z,10.50
2022-10-08T13:54:27.568Z,10.93
2022-10-08T13:59:30.840Z,10.73
2022-10-08T14:04:32.908Z,9.48
2022-10-08T14:09:34.636Z,10.38
2022-10-08T14:14:36.544Z,11.03
2022-10-08T14:19:38.217Z,10.83
2022-10-08T14:24:40.503Z,9.98
2022-10-08T14:29:42.268Z,10.87
2022-10-08T14:34:43.966Z,11.68
2022-10-08T14:39:45.737Z,11.93
2022-10-08T14:44:47.449Z,10.57
2022-10-08T14:49:49.134Z,13.45
2022-10-08T14:54:50.847Z,11.65
2022-10-08T14:59:52.500Z,11.18
2022-10-08T15:04:54.216Z,13.03
2022-10-08T15:09:55.979Z,11.77
2022-10-08T15:14:57.648Z,11.75
2022-10-08T15:19:59.355Z,11.27
2022-10-08T15:25:01.015Z,10.50
2022-10-08T15:30:03.268Z,10.63
2022-10-08T15:35:05.324Z,10.73
2022-10-08T15:40:07.384Z,10.68
2022-10-08T15:45:09.269Z,10.30
2022-10-08T15:50:10.923Z,10.27
2022-10-08T15:55:12.779Z,11.80
2022-10-08T16:00:14.808Z,10.70
2022-10-08T16:05:16.563Z,11.77
2022-10-08T16:10:18.242Z,10.80
2022-10-08T16:15:19.938Z,10.45
2022-10-08T16:20:21.657Z,11.43
2022-10-08T16:25:23.352Z,11.55
2022-10-08T16:30:25.083Z,10.13
2022-10-08T16:35:26.865Z,11.30
2022-10-08T16:40:28.564Z,10.32
2022-10-08T16:45:30.226Z,11.02
2022-10-08T16:50:32.087Z,11.13
2022-10-08T16:55:35.401Z,10.73
2022-10-08T17:00:37.179Z,11.32
2022-10-08T17:05:41.950Z,11.90
2022-10-08T17:10:43.652Z,11.40
2022-10-08T17:15:45.469Z,10.50
2022-10-08T17:20:49.392Z,10.90
2022-10-08T17:25:58.150Z,11.97
2022-10-08T17:31:01.281Z,12.07
2022-10-08T17:36:15.037Z,11.25
2022-10-08T17:41:31.206Z,12.10
2022-10-08T17:46:39.700Z,13.18
2022-10-08T17:51:41.417Z,11.97
2022-10-08T17:56:43.172Z,12.23
2022-10-08T18:01:45.868Z,12.35
2022-10-08T18:06:48.470Z,12.98
2022-10-08T18:11:52.493Z,15.43
2022-10-08T18:16:54.197Z,12.60
2022-10-08T18:21:55.891Z,12.38
2022-10-08T18:26:57.546Z,12.63
2022-10-08T18:31:59.234Z,12.68
2022-10-08T18:37:00.911Z,15.27
2022-10-08T18:42:02.579Z,17.38
2022-10-08T18:47:05.542Z,23.92
2022-10-08T18:52:07.434Z,19.17
2022-10-08T18:57:09.067Z,17.27
2022-10-08T19:02:10.907Z,17.63
2022-10-08T19:07:12.688Z,20.03
2022-10-08T19:12:14.379Z,20.03
2022-10-08T19:17:16.086Z,17.55
2022-10-08T19:22:17.737Z,19.40
2022-10-08T19:27:19.419Z,16.75
2022-10-08T19:32:21.070Z,16.33
2022-10-08T19:37:22.873Z,18.58
2022-10-08T19:42:24.602Z,15.60
2022-10-08T19:47:26.287Z,19.25
2022-10-08T19:52:28.054Z,14.70
2022-10-08T19:57:29.706Z,15.38
2022-10-08T20:02:31.408Z,16.00
2022-10-08T20:07:33.127Z,15.47
2022-10-08T20:12:34.807Z,15.35
2022-10-08T20:17:36.894Z,15.55
2022-10-08T20:22:38.571Z,14.67
2022-10-08T20:27:40.259Z,14.65
2022-10-08T20:32:41.952Z,14.82
2022-10-08T20:37:43.607Z,15.98
2022-10-08T20:42:45.607Z,16.88
2022-10-08T20:47:47.566Z,15.43
2022-10-08T20:52:49.795Z,14.32
2022-10-08T20:57:51.955Z,14.35
2022-10-08T21:02:53.657Z,15.07
2022-10-08T21:07:55.295Z,14.37
2022-10-08T21:12:56.928Z,14.13
2022-10-08T21:17:58.585Z,14.25
2022-10-08T21:23:00.318Z,13.80
2022-10-08T21:28:02.073Z,14.50
2022-10-08T21:33:03.777Z,14.63
2022-10-08T21:38:05.433Z,14.63
2022-10-08T21:43:07.144Z,15.13
2022-10-08T21:48:08.886Z,14.75
2022-10-08T21:53:10.595Z,14.48
2022-10-08T21:58:12.289Z,13.73
2022-10-08T22:03:15.665Z,15.27
2022-10-08T22:08:17.795Z,15.50
2022-10-08T22:13:20.069Z,13.45
2022-10-08T22:18:22.941Z,13.88
2022-10-08T22:23:24.648Z,13.93
2022-10-08T22:28:27.921Z,13.57
2022-10-08T22:33:30.039Z,12.73
2022-10-08T22:38:33.067Z,13.00
2022-10-08T22:43:38.016Z,12.55
2022-10-08T22:48:40.423Z,11.15
2022-10-08T22:53:42.657Z,12.07
2022-10-08T22:58:44.889Z,10.50
2022-10-08T23:03:46.944Z,10.60
2022-10-08T23:08:53.176Z,8.98
2022-10-08T23:13:56.555Z,9.88
2022-10-08T23:19:04.580Z,9.23
2022-10-08T23:24:06.703Z,9.10
2022-10-08T23:29:10.460Z,8.82
2022-10-08T23:34:12.191Z,7.78
2022-10-08T23:39:16.671Z,9.00
2022-10-08T23:44:18.360Z,7.70
2022-10-08T23:49:20.047Z,8.87
2022-10-08T23:54:21.723Z,8.70
2022-10-08T23:59:23.408Z,8.00
